createdAt,value
2018-07-08T15:24:55.549Z,46.50
2018-07-08T15:27:23.769Z,46.60
2018-07-08T15:29:52.019Z,46.80
2018-07-08T15:34:48.264Z,46.80
2018-07-08T15:37:16.542Z,46.70
2018-07-08T15:41:58.917Z,46.90
2018-07-08T15:44:27.951Z,41.20
2018-07-08T15:46:57.042Z,41.00
2018-07-08T15:49:26.014Z,40.10
2018-07-08T15:51:54.165Z,39.70
2018-07-08T15:54:21.786Z,39.60
2018-07-08T15:56:49.181Z,39.60
2018-07-08T15:59:16.592Z,39.40
2018-07-08T16:01:43.995Z,39.30
2018-07-08T16:04:11.426Z,39.50
2018-07-08T16:06:38.814Z,39.10
2018-07-08T16:09:06.455Z,39.00
2018-07-08T16:11:35.315Z,38.90
2018-07-08T16:14:01.295Z,38.90
2018-07-08T16:16:28.946Z,39.00
2018-07-08T16:18:56.414Z,38.50
2018-07-08T16:21:23.841Z,38.40
2018-07-08T16:23:51.253Z,38.30
2018-07-08T16:26:18.635Z,38.40
2018-07-08T16:28:46.019Z,38.40
2018-07-08T16:31:13.399Z,38.50
2018-07-08T16:33:40.767Z,38.40
2018-07-08T16:36:08.138Z,38.60
2018-07-08T16:38:35.528Z,38.80
2018-07-08T16:41:02.909Z,39.30
2018-07-08T16:43:30.322Z,40.70
2018-07-08T16:45:57.699Z,39.50
2018-07-08T16:48:25.061Z,39.20
2018-07-08T16:50:52.442Z,39.60
2018-07-08T16:53:19.833Z,41.10
2018-07-08T16:55:47.235Z,40.30
2018-07-08T16:58:14.928Z,39.50
2018-07-08T17:00:42.327Z,39.20
2018-07-08T17:03:09.716Z,41.20
2018-07-08T17:05:37.085Z,42.30
2018-07-08T17:08:04.515Z,40.80
2018-07-08T17:10:32.405Z,39.90
2018-07-08T17:13:00.255Z,39.70
2018-07-08T17:15:27.710Z,40.00
2018-07-08T17:17:55.110Z,41.00
2018-07-08T17:20:22.506Z,40.90
2018-07-08T17:22:51.210Z,40.40
2018-07-08T17:25:18.951Z,40.20
2018-07-08T17:27:45.848Z,40.60
